createdAt,value
2022-09-15T00:03:34.525Z,999.8
2022-09-15T00:08:34.699Z,999.8
2022-09-15T00:13:34.858Z,999.7
2022-09-15T00:18:34.031Z,999.7
2022-09-15T00:23:34.196Z,999.7
2022-09-15T00:28:34.302Z,999.7
2022-09-15T00:33:34.523Z,999.7
2022-09-15T00:38:34.755Z,999.7
2022-09-15T00:43:34.872Z,999.8
2022-09-15T00:48:34.071Z,999.8
2022-09-15T00:53:34.400Z,1000
2022-09-15T00:58:34.471Z,1000
2022-09-15T01:03:33.962Z,1000
2022-09-15T01:08:34.062Z,1000
2022-09-15T01:13:34.146Z,999.8
2022-09-15T01:18:34.269Z,999.8
2022-09-15T01:23:34.534Z,999.7
2022-09-15T01:28:34.771Z,999.7
2022-09-15T01:33:34.944Z,999.7
2022-09-15T01:38:34.099Z,999.7
2022-09-15T01:43:34.307Z,999.7
2022-09-15T01:48:34.390Z,999.7
2022-09-15T01:53:34.776Z,999.7
2022-09-15T01:58:34.957Z,999.7
2022-09-15T02:03:34.510Z,999.7
2022-09-15T02:08:34.763Z,999.7
2022-09-15T02:13:34.184Z,999.7
2022-09-15T02:18:34.533Z,999.7
2022-09-15T02:23:34.671Z,999.7
2022-09-15T02:28:34.808Z,999.7
2022-09-15T02:33:34.215Z,999.7
2022-09-15T02:38:34.346Z,999.7
2022-09-15T02:43:34.807Z,999.8
2022-09-15T02:48:34.544Z,999.8
2022-09-15T02:53:34.957Z,999.8
2022-09-15T02:58:34.872Z,999.8
2022-09-15T03:03:34.634Z,999.8
2022-09-15T03:08:34.139Z,999.8
2022-09-15T03:13:34.672Z,999.8
2022-09-15T03:18:34.367Z,999.8
2022-09-15T03:23:34.833Z,999.7
2022-09-15T03:28:34.564Z,999.7
2022-09-15T03:33:34.944Z,999.7
2022-09-15T03:38:35.140Z,999.7
2022-09-15T03:43:35.167Z,999.8
2022-09-15T03:48:34.617Z,999.8
2022-09-15T03:53:34.971Z,999.9
2022-09-15T03:58:34.808Z,999.9
2022-09-15T04:03:37.443Z,999.9
2022-09-15T04:08:34.355Z,999.9
2022-09-15T04:13:34.729Z,999.7
2022-09-15T04:18:34.101Z,999.7
2022-09-15T04:23:34.511Z,999.7
2022-09-15T04:28:34.850Z,999.7
2022-09-15T04:33:34.839Z,999.7
2022-09-15T04:38:34.727Z,999.7
2022-09-15T04:43:34.280Z,999.7
2022-09-15T04:48:34.849Z,999.7
2022-09-15T04:53:34.502Z,999.7
2022-09-15T04:58:34.629Z,999.7
2022-09-15T05:03:35.093Z,999.7
2022-09-15T05:08:34.499Z,999.7
2022-09-15T05:13:34.833Z,999.7
2022-09-15T05:18:34.421Z,999.7
2022-09-15T05:23:34.732Z,999.7
2022-09-15T05:28:34.806Z,999.7
2022-09-15T05:33:35.011Z,999.7
2022-09-15T05:38:34.218Z,999.7
2022-09-15T05:43:34.461Z,999.7
2022-09-15T05:48:34.615Z,999.7
2022-09-15T05:53:34.692Z,999.6
2022-09-15T05:58:35.172Z,999.6
2022-09-15T06:03:34.259Z,999.6
2022-09-15T06:08:34.565Z,999.6
2022-09-15T06:13:34.720Z,999.7
2022-09-15T06:18:34.942Z,999.7
2022-09-15T06:23:34.980Z,999.7
2022-09-15T06:28:35.031Z,999.7
2022-09-15T06:33:34.245Z,999.7
2022-09-15T06:38:34.463Z,999.7
2022-09-15T06:43:34.614Z,1000.1
2022-09-15T06:48:35.076Z,1000.1
2022-09-15T06:53:34.755Z,1000.1
2022-09-15T06:58:35.010Z,1000.1
2022-09-15T07:03:34.349Z,1000.1
2022-09-15T07:08:34.839Z,1000.1
2022-09-15T07:13:35.120Z,1000.1
2022-09-15T07:18:34.383Z,1000.1
2022-09-15T07:23:34.916Z,1000.2
2022-09-15T07:28:35.156Z,1000.2
2022-09-15T07:33:34.332Z,1000.2
2022-09-15T07:38:34.581Z,1000.2
2022-09-15T07:43:34.775Z,1000.2
2022-09-15T07:48:34.958Z,1000.2
2022-09-15T07:53:34.202Z,1000.2
2022-09-15T07:58:34.280Z,1000.2
2022-09-15T08:03:34.488Z,1000.2
2022-09-15T08:08:34.898Z,1000.2
2022-09-15T08:13:35.229Z,1000.2
2022-09-15T08:18:34.427Z,1000.2
2022-09-15T08:23:34.659Z,1000.2
2022-09-15T08:28:34.831Z,1000.2
2022-09-15T08:33:34.904Z,1000.2
2022-09-15T08:38:35.051Z,1000.2
2022-09-15T08:43:35.190Z,1000.2
2022-09-15T08:48:34.307Z,1000.2
2022-09-15T08:53:34.607Z,1000.5
2022-09-15T08:58:34.974Z,1000.5
2022-09-15T09:03:34.819Z,1000.5
2022-09-15T09:08:35.299Z,1000.5
2022-09-15T09:13:35.670Z,1000.4
2022-09-15T09:18:34.991Z,1000.4
2022-09-15T09:23:35.182Z,1000.6
2022-09-15T09:28:34.353Z,1000.6
2022-09-15T09:33:35.072Z,1000.6
2022-09-15T09:38:34.562Z,1000.6
2022-09-15T09:43:35.160Z,1000.3
2022-09-15T09:48:35.250Z,1000.3
2022-09-15T09:53:34.434Z,1000.3
2022-09-15T09:58:34.707Z,1000.3
2022-09-15T10:03:34.618Z,1000.3
2022-09-15T10:08:34.670Z,1000.3
2022-09-15T10:13:35.061Z,1000.5
2022-09-15T10:18:34.408Z,1000.5
2022-09-15T10:23:34.545Z,1000.6
2022-09-15T10:28:34.590Z,1000.6
2022-09-15T10:33:35.094Z,1000.6
2022-09-15T10:38:34.515Z,1000.6
2022-09-15T10:43:34.537Z,1000.6
2022-09-15T10:48:34.580Z,1000.6
2022-09-15T10:53:34.705Z,1000.4
2022-09-15T10:58:34.932Z,1000.4
2022-09-15T11:03:34.384Z,1000.3
2022-09-15T11:08:34.575Z,1000.3
2022-09-15T11:13:34.703Z,1000.3
2022-09-15T11:18:34.882Z,1000.3
2022-09-15T11:23:35.011Z,1000.4
2022-09-15T11:28:34.595Z,1000.4
2022-09-15T11:33:34.900Z,1000.4
2022-09-15T11:38:35.034Z,1000.4
2022-09-15T11:43:35.165Z,1000.4
2022-09-15T11:48:34.443Z,1000.4
2022-09-15T11:53:35.041Z,1000.6
2022-09-15T11:58:35.137Z,1000.6
2022-09-15T12:03:35.314Z,1000.6
2022-09-15T12:08:34.915Z,1000.6
2022-09-15T12:13:35.066Z,1000.7
2022-09-15T12:18:39.897Z,1000.7
2022-09-15T12:23:34.850Z,1000.6
2022-09-15T12:28:35.092Z,1000.6
2022-09-15T12:33:35.227Z,1000.6
2022-09-15T12:38:35.363Z,1000.6
2022-09-15T12:43:34.597Z,1000.6
2022-09-15T12:48:34.974Z,1000.6
2022-09-15T12:58:35.158Z,1000.5
2022-09-15T13:03:35.349Z,1000.5
2022-09-15T13:08:34.977Z,1000.5
2022-09-15T13:13:35.341Z,1000.4
2022-09-15T13:18:34.588Z,1000.4
2022-09-15T13:23:35.136Z,1000.6
2022-09-15T13:28:35.215Z,1000.6
2022-09-15T13:38:35.167Z,1000.6
2022-09-15T13:43:40.632Z,1000.6
2022-09-15T13:48:34.535Z,1000.6
2022-09-15T13:53:34.890Z,1000.9
2022-09-15T13:59:03.537Z,1000.9
2022-09-15T14:03:34.941Z,1000.9
2022-09-15T14:08:35.056Z,1000.9
2022-09-15T14:13:35.230Z,1000.8
2022-09-15T14:18:35.323Z,1000.8
2022-09-15T14:23:35.519Z,1000.8
2022-09-15T14:28:34.623Z,1000.8
2022-09-15T14:33:37.835Z,1000.8
2022-09-15T14:38:34.711Z,1000.8
2022-09-15T14:43:35.133Z,1000.8
2022-09-15T14:48:35.542Z,1000.8
2022-09-15T14:53:34.927Z,1000.9
2022-09-15T14:58:35.327Z,1000.9
2022-09-15T15:03:35.130Z,1000.8
2022-09-15T15:08:35.494Z,1000.8
2022-09-15T15:13:35.275Z,1001.2
2022-09-15T15:18:34.850Z,1001.2
2022-09-15T15:23:35.445Z,1001.1
2022-09-15T15:28:35.081Z,1001.1
2022-09-15T15:33:35.127Z,1001.1
2022-09-15T15:38:34.733Z,1001.1
2022-09-15T15:43:34.680Z,1001
2022-09-15T15:48:37.805Z,1001
2022-09-15T15:53:35.007Z,1001
2022-09-15T15:58:35.238Z,1001
2022-09-15T16:03:35.505Z,1001
2022-09-15T16:08:35.124Z,1001
2022-09-15T16:13:35.383Z,1001.2
2022-09-15T16:18:34.533Z,1001.2
2022-09-15T16:23:34.707Z,1001.1
2022-09-15T16:28:35.029Z,1001.1
2022-09-15T16:33:38.071Z,1001.1
2022-09-15T16:38:34.733Z,1001.1
2022-09-15T16:43:35.308Z,1000.9
2022-09-15T16:48:35.415Z,1000.9
2022-09-15T16:53:34.623Z,1001.1
2022-09-15T16:58:35.107Z,1001.1
2022-09-15T17:03:35.158Z,1001.2
2022-09-15T17:08:35.528Z,1001.2
2022-09-15T17:13:34.640Z,1000.9
2022-09-15T17:18:34.668Z,1000.9
2022-09-15T17:23:35.042Z,1001
2022-09-15T17:28:35.143Z,1001
2022-09-15T17:33:35.289Z,1001
2022-09-15T17:38:35.507Z,1001
2022-09-15T17:43:34.830Z,1001.1
2022-09-15T17:48:34.956Z,1001.1
2022-09-15T17:53:35.105Z,1001.2
2022-09-15T17:58:35.285Z,1001.2
2022-09-15T18:03:35.467Z,1001.2
2022-09-15T18:08:35.652Z,1001.2
2022-09-15T18:13:34.832Z,1001.2
2022-09-15T18:18:35.090Z,1001.2
2022-09-15T18:23:35.448Z,1001.2
2022-09-15T18:28:34.803Z,1001.2
2022-09-15T18:33:34.978Z,1001.2
2022-09-15T18:38:35.056Z,1001.2
2022-09-15T18:43:35.296Z,1001.2
2022-09-15T18:48:35.426Z,1001.2
2022-09-15T18:53:35.458Z,1001.3
2022-09-15T18:58:35.461Z,1001.3
2022-09-15T19:03:34.650Z,1001.3
2022-09-15T19:08:34.854Z,1001.3
2022-09-15T19:13:35.241Z,1001.3
2022-09-15T19:18:35.607Z,1001.3
2022-09-15T19:23:34.713Z,1001.4
2022-09-15T19:28:35.248Z,1001.4
2022-09-15T19:33:35.324Z,1001.4
2022-09-15T19:38:35.448Z,1001.4
2022-09-15T19:43:35.612Z,1001.5
2022-09-15T19:48:38.540Z,1001.5
2022-09-15T19:53:34.771Z,1001.5
2022-09-15T19:58:34.880Z,1001.5
2022-09-15T20:03:35.034Z,1001.5
2022-09-15T20:08:35.535Z,1001.5
2022-09-15T20:13:35.855Z,1001.6
2022-09-15T20:18:34.964Z,1001.6
2022-09-15T20:23:35.341Z,1001.7
2022-09-15T20:28:35.399Z,1001.7
2022-09-15T20:33:35.455Z,1001.7
2022-09-15T20:38:35.595Z,1001.7
2022-09-15T20:43:34.806Z,1001.7
2022-09-15T20:48:35.031Z,1001.7
2022-09-15T20:53:35.036Z,1001.7
2022-09-15T20:58:35.686Z,1001.7
2022-09-15T21:03:35.673Z,1001.7
2022-09-15T21:08:35.320Z,1001.7
2022-09-15T21:13:35.408Z,1001.7
2022-09-15T21:18:35.495Z,1001.7
2022-09-15T21:23:35.088Z,1001.7
2022-09-15T21:28:35.366Z,1001.7
2022-09-15T21:33:34.887Z,1001.7
2022-09-15T21:38:35.467Z,1001.7
2022-09-15T21:43:35.758Z,1001.7
2022-09-15T21:48:34.931Z,1001.7
2022-09-15T21:53:35.455Z,1001.7
2022-09-15T21:58:39.089Z,1001.7
2022-09-15T22:03:35.315Z,1001.7
2022-09-15T22:08:35.511Z,1001.7
2022-09-15T22:13:35.088Z,1001.8
2022-09-15T22:18:35.584Z,1001.8
2022-09-15T22:23:34.762Z,1001.8
2022-09-15T22:28:34.942Z,1001.8
2022-09-15T22:33:35.156Z,1001.8
2022-09-15T22:38:35.540Z,1001.8
2022-09-15T22:43:34.724Z,1001.8
2022-09-15T22:48:36.671Z,1001.8
2022-09-15T22:53:35.986Z,1001.9
2022-09-15T22:58:35.101Z,1001.9
2022-09-15T23:03:35.256Z,1001.9
2022-09-15T23:08:35.533Z,1001.9
2022-09-15T23:13:34.990Z,1001.8
2022-09-15T23:18:35.015Z,1001.8
2022-09-15T23:23:35.117Z,1001.8
2022-09-15T23:28:35.315Z,1001.8
2022-09-15T23:33:35.671Z,1001.8
2022-09-15T23:38:34.893Z,1001.8
2022-09-15T23:43:35.054Z,1001.8
2022-09-15T23:48:35.161Z,1001.8
2022-09-15T23:53:35.516Z,1001.7
2022-09-15T23:58:35.558Z,1001.7
